createdAt,value
2018-02-21T00:01:59.593Z,37.60
2018-02-21T00:04:25.423Z,37.53
2018-02-21T00:06:51.245Z,37.73
2018-02-21T00:09:17.066Z,37.45
2018-02-21T00:11:42.890Z,37.80
2018-02-21T00:14:08.773Z,38.02
2018-02-21T00:16:35.424Z,37.84
2018-02-21T00:19:01.250Z,37.88
2018-02-21T00:21:27.066Z,37.99
2018-02-21T00:23:52.936Z,37.86
2018-02-21T00:26:19.666Z,37.42
2018-02-21T00:28:45.479Z,37.74
2018-02-21T00:31:11.299Z,37.74
2018-02-21T00:33:37.123Z,37.52
2018-02-21T00:36:02.967Z,37.69
2018-02-21T00:38:28.797Z,37.54
2018-02-21T00:40:55.620Z,37.52
2018-02-21T00:43:21.442Z,37.69
2018-02-21T00:45:47.262Z,37.98
2018-02-21T00:48:13.088Z,37.79
2018-02-21T00:50:38.920Z,38.00
2018-02-21T00:53:04.761Z,37.74
2018-02-21T00:55:30.582Z,37.77
2018-02-21T00:57:56.445Z,37.54
2018-02-21T01:00:22.266Z,37.61
2018-02-21T01:02:48.123Z,37.72
2018-02-21T01:05:13.950Z,37.60
2018-02-21T01:07:39.810Z,37.65
2018-02-21T01:10:05.630Z,37.67
2018-02-21T01:12:31.535Z,37.57
2018-02-21T01:14:57.351Z,37.20
2018-02-21T01:17:23.173Z,37.69
2018-02-21T01:19:48.996Z,37.75
2018-02-21T01:22:14.809Z,37.72
2018-02-21T01:24:40.635Z,37.64
2018-02-21T01:27:07.331Z,37.84
2018-02-21T01:29:34.096Z,37.37
2018-02-21T01:31:59.916Z,37.68
2018-02-21T01:34:25.770Z,37.66
2018-02-21T01:36:52.425Z,38.03
2018-02-21T01:39:18.666Z,37.65
2018-02-21T01:41:44.489Z,37.50
2018-02-21T01:44:10.355Z,37.74
2018-02-21T01:46:36.234Z,37.70
2018-02-21T01:49:02.981Z,37.48
2018-02-21T01:51:29.629Z,37.55
2018-02-21T01:53:55.453Z,37.72
2018-02-21T01:56:22.303Z,37.90
2018-02-21T01:58:48.951Z,37.71
2018-02-21T02:01:14.797Z,37.73
2018-02-21T02:03:40.613Z,37.45
2018-02-21T02:06:07.423Z,37.87
2018-02-21T02:08:33.257Z,37.88
2018-02-21T02:10:59.125Z,37.86
2018-02-21T02:13:24.971Z,37.77
2018-02-21T02:15:50.825Z,37.79
2018-02-21T02:18:16.680Z,37.65
2018-02-21T02:20:42.531Z,37.57
2018-02-21T02:23:09.167Z,38.04
2018-02-21T02:25:35.021Z,37.95
2018-02-21T02:28:01.652Z,37.98
2018-02-21T02:30:27.511Z,38.10
2018-02-21T02:32:53.335Z,37.84
2018-02-21T02:35:19.222Z,37.79
2018-02-21T02:37:45.046Z,37.74
2018-02-21T02:40:10.944Z,37.81
2018-02-21T02:42:36.801Z,37.93
2018-02-21T02:45:02.625Z,37.95
2018-02-21T02:47:28.477Z,37.58
2018-02-21T02:49:54.307Z,37.82
2018-02-21T02:52:20.145Z,37.54
2018-02-21T02:54:45.970Z,37.79
2018-02-21T02:57:11.790Z,37.68
2018-02-21T02:59:37.611Z,37.74
2018-02-21T03:02:03.479Z,37.88
2018-02-21T03:04:29.300Z,37.93
2018-02-21T03:06:55.177Z,37.63
2018-02-21T03:09:21.002Z,37.45
2018-02-21T03:11:46.835Z,37.67
2018-02-21T03:14:12.658Z,37.62
2018-02-21T03:16:38.483Z,37.70
2018-02-21T03:19:04.326Z,37.81
2018-02-21T03:21:30.153Z,37.61
2018-02-21T03:23:55.972Z,37.80
2018-02-21T03:26:21.800Z,37.74
2018-02-21T03:28:47.626Z,37.42
2018-02-21T03:31:13.451Z,37.58
2018-02-21T03:33:39.279Z,37.79
2018-02-21T03:36:05.106Z,37.71
2018-02-21T03:38:30.923Z,37.93
2018-02-21T03:40:56.756Z,37.85
2018-02-21T03:43:22.573Z,37.76
2018-02-21T03:45:48.403Z,37.61
2018-02-21T03:48:14.227Z,37.81
2018-02-21T03:50:40.054Z,37.76
2018-02-21T03:53:05.872Z,37.82
2018-02-21T03:55:31.692Z,37.83
2018-02-21T03:57:57.517Z,37.68
2018-02-21T04:00:23.333Z,37.68
2018-02-21T04:02:49.159Z,37.57
2018-02-21T04:05:15.049Z,37.75
2018-02-21T04:07:40.873Z,37.98
2018-02-21T04:10:06.696Z,38.09
2018-02-21T04:12:32.562Z,38.06
2018-02-21T04:14:58.413Z,38.14
2018-02-21T04:17:24.271Z,37.94
2018-02-21T04:19:50.089Z,37.99
2018-02-21T04:22:15.951Z,38.28
2018-02-21T04:24:41.823Z,37.90
2018-02-21T04:27:07.635Z,37.91
2018-02-21T04:29:33.509Z,38.15
2018-02-21T04:31:59.333Z,37.72
2018-02-21T04:34:25.202Z,38.06
2018-02-21T04:36:51.026Z,38.24
2018-02-21T04:39:16.890Z,38.08
2018-02-21T04:41:42.737Z,38.01
2018-02-21T04:44:08.582Z,38.29
2018-02-21T04:46:34.430Z,38.16
2018-02-21T04:49:00.259Z,38.08
2018-02-21T04:51:26.117Z,38.07
2018-02-21T04:53:51.988Z,37.93
2018-02-21T04:59:25.935Z,38.34
2018-02-21T05:01:51.768Z,38.16
2018-02-21T05:04:17.630Z,38.04
2018-02-21T05:06:43.474Z,37.86
2018-02-21T05:09:09.296Z,37.90
2018-02-21T05:11:35.118Z,37.99
2018-02-21T05:14:00.972Z,37.98
2018-02-21T05:16:26.805Z,38.17
2018-02-21T05:18:52.672Z,38.00
2018-02-21T05:21:18.527Z,37.94
2018-02-21T05:23:44.542Z,38.15
2018-02-21T05:26:10.405Z,38.17
2018-02-21T05:28:36.266Z,38.07
2018-02-21T05:31:02.087Z,37.97
2018-02-21T05:33:27.954Z,38.24
2018-02-21T05:35:53.825Z,38.02
2018-02-21T05:38:19.678Z,38.29
2018-02-21T05:40:45.514Z,37.77
2018-02-21T05:43:11.372Z,38.06
2018-02-21T05:45:37.226Z,38.12
2018-02-21T05:48:03.070Z,38.10
2018-02-21T05:50:28.933Z,38.17
2018-02-21T05:52:54.761Z,38.24
2018-02-21T05:55:20.663Z,37.87
2018-02-21T05:57:46.508Z,38.29
2018-02-21T06:00:12.376Z,38.08
2018-02-21T06:02:38.197Z,37.77
2018-02-21T06:05:04.242Z,38.18
2018-02-21T06:07:30.064Z,37.96
2018-02-21T06:09:55.894Z,38.28
2018-02-21T06:12:21.719Z,37.99
2018-02-21T06:14:47.579Z,38.16
2018-02-21T06:17:13.411Z,38.00
2018-02-21T06:19:39.230Z,38.24
2018-02-21T06:22:05.927Z,38.27
2018-02-21T06:24:31.768Z,38.16
2018-02-21T06:26:57.607Z,38.09
2018-02-21T06:29:23.432Z,38.28
2018-02-21T06:31:49.292Z,38.09
2018-02-21T06:34:15.122Z,38.27
2018-02-21T06:36:40.965Z,38.22
2018-02-21T06:39:06.823Z,38.34
2018-02-21T06:41:32.637Z,38.34
2018-02-21T06:43:58.522Z,38.36
2018-02-21T06:46:24.355Z,38.31
2018-02-21T06:48:50.170Z,38.47
2018-02-21T06:51:19.465Z,38.41
2018-02-21T06:53:45.355Z,38.38
2018-02-21T06:56:11.175Z,38.75
2018-02-21T06:58:36.985Z,38.02
2018-02-21T07:01:02.790Z,37.92
2018-02-21T07:03:28.593Z,38.86
2018-02-21T07:05:54.414Z,37.98
2018-02-21T07:08:20.225Z,37.62
2018-02-21T07:10:46.036Z,38.77
2018-02-21T07:13:12.055Z,37.82
2018-02-21T07:15:37.929Z,38.09
2018-02-21T07:18:03.758Z,37.31
2018-02-21T07:20:29.624Z,37.72
2018-02-21T07:22:55.434Z,37.70
2018-02-21T07:25:21.292Z,38.70
2018-02-21T07:27:47.109Z,37.46
2018-02-21T07:30:12.929Z,37.60
2018-02-21T07:32:38.745Z,38.09
2018-02-21T07:35:04.552Z,37.77
2018-02-21T07:37:30.388Z,38.30
2018-02-21T07:39:56.190Z,38.38
2018-02-21T07:42:22.032Z,37.56
2018-02-21T07:44:47.837Z,37.95
2018-02-21T07:47:13.711Z,38.13
2018-02-21T07:49:39.517Z,38.51
2018-02-21T07:52:05.325Z,38.01
2018-02-21T07:54:31.125Z,37.80
2018-02-21T07:56:56.936Z,38.07
2018-02-21T07:59:22.742Z,37.37
2018-02-21T08:01:48.590Z,37.70
2018-02-21T08:04:14.391Z,37.75
2018-02-21T08:06:40.188Z,37.89
2018-02-21T08:09:05.989Z,38.81
2018-02-21T08:11:31.788Z,37.77
2018-02-21T08:13:57.595Z,38.05
2018-02-21T08:16:23.397Z,38.75
2018-02-21T08:18:49.209Z,37.59
2018-02-21T08:21:15.058Z,37.97
2018-02-21T08:23:40.861Z,37.20
2018-02-21T08:26:06.677Z,37.32
2018-02-21T08:28:32.477Z,37.73
2018-02-21T08:30:58.278Z,38.38
2018-02-21T08:33:24.081Z,38.19
2018-02-21T08:35:49.886Z,38.07
2018-02-21T08:38:15.719Z,37.78
2018-02-21T08:40:41.531Z,37.81
2018-02-21T08:43:07.398Z,38.07
2018-02-21T08:45:33.203Z,37.89
2018-02-21T08:47:59.072Z,39.52
2018-02-21T08:50:24.950Z,37.84
2018-02-21T08:52:50.753Z,39.16
2018-02-21T08:55:16.552Z,38.81
2018-02-21T08:57:42.365Z,38.05
2018-02-21T09:00:08.186Z,38.42
2018-02-21T09:02:34.034Z,37.57
2018-02-21T09:04:59.839Z,37.54
2018-02-21T09:07:25.646Z,37.45
2018-02-21T09:09:51.440Z,39.28
2018-02-21T09:12:17.342Z,37.45
2018-02-21T09:14:43.181Z,37.51
2018-02-21T09:17:08.989Z,37.90
2018-02-21T09:19:34.831Z,38.16
2018-02-21T09:22:01.469Z,38.36
2018-02-21T09:24:27.277Z,39.04
2018-02-21T09:26:53.084Z,41.19
2018-02-21T09:29:18.893Z,40.35
2018-02-21T09:31:44.706Z,40.69
2018-02-21T09:34:10.510Z,40.71
2018-02-21T09:36:36.314Z,39.48
2018-02-21T09:39:02.210Z,38.98
2018-02-21T09:41:28.023Z,39.14
2018-02-21T09:43:53.834Z,39.82
2018-02-21T09:46:19.679Z,38.81
2018-02-21T09:48:45.494Z,39.24
2018-02-21T09:51:11.297Z,38.24
2018-02-21T09:53:37.101Z,38.29
2018-02-21T09:56:02.906Z,38.95
2018-02-21T09:58:28.701Z,37.33
2018-02-21T10:00:54.515Z,37.27
2018-02-21T10:03:20.326Z,36.95
2018-02-21T10:05:46.130Z,37.07
2018-02-21T10:08:11.930Z,36.80
2018-02-21T10:10:37.770Z,36.84
2018-02-21T10:13:03.569Z,36.92
2018-02-21T10:15:29.413Z,37.61
2018-02-21T10:17:55.277Z,37.63
2018-02-21T10:20:21.132Z,38.02
2018-02-21T10:22:46.933Z,37.22
2018-02-21T10:25:12.774Z,37.02
2018-02-21T10:27:38.578Z,37.42
2018-02-21T10:30:04.439Z,38.26
2018-02-21T10:32:30.288Z,38.28
2018-02-21T10:34:56.216Z,37.33
2018-02-21T10:37:22.025Z,37.19
2018-02-21T10:39:47.866Z,36.70
2018-02-21T10:42:13.677Z,36.96
2018-02-21T10:44:39.486Z,37.21
2018-02-21T10:47:05.337Z,37.92
2018-02-21T10:49:31.146Z,37.28
2018-02-21T10:51:57.045Z,37.65
2018-02-21T10:54:22.842Z,36.96
2018-02-21T10:56:48.835Z,36.92
2018-02-21T10:59:14.637Z,37.45
2018-02-21T11:01:40.504Z,37.06
2018-02-21T11:04:06.313Z,37.52
2018-02-21T11:06:32.116Z,37.28
2018-02-21T11:08:57.917Z,36.91
2018-02-21T11:11:23.722Z,36.77
2018-02-21T11:13:49.527Z,37.09
2018-02-21T11:16:15.322Z,37.64
2018-02-21T11:18:41.121Z,36.91
2018-02-21T11:21:06.935Z,36.50
2018-02-21T11:23:32.802Z,36.65
2018-02-21T11:25:58.621Z,36.26
2018-02-21T11:28:24.426Z,35.85
2018-02-21T11:30:50.225Z,34.89
2018-02-21T11:33:16.029Z,35.01
2018-02-21T11:35:41.834Z,34.63
2018-02-21T11:38:07.647Z,34.47
2018-02-21T11:40:33.441Z,34.35
2018-02-21T11:42:59.250Z,34.52
2018-02-21T11:45:25.053Z,35.63
2018-02-21T11:47:50.862Z,35.27
2018-02-21T11:50:16.686Z,34.92
2018-02-21T11:52:42.521Z,35.46
2018-02-21T11:55:08.330Z,36.23
2018-02-21T11:57:34.134Z,35.13
2018-02-21T11:59:59.945Z,36.11
2018-02-21T12:02:25.758Z,36.63
2018-02-21T12:04:51.632Z,34.71
2018-02-21T12:07:17.402Z,34.70
2018-02-21T12:09:43.243Z,33.78
2018-02-21T12:12:09.110Z,34.24
2018-02-21T12:14:34.943Z,34.94
2018-02-21T12:17:00.760Z,35.23
2018-02-21T12:19:26.581Z,34.81
2018-02-21T12:21:52.381Z,34.98
2018-02-21T12:24:18.189Z,35.79
2018-02-21T12:26:44.039Z,34.82
2018-02-21T12:29:09.823Z,36.00
2018-02-21T12:31:35.650Z,36.06
2018-02-21T12:34:01.497Z,36.61
2018-02-21T12:36:27.292Z,35.66
2018-02-21T12:38:59.255Z,35.57
2018-02-21T12:41:31.305Z,35.75
2018-02-21T12:43:57.102Z,35.63
2018-02-21T12:46:22.909Z,35.65
2018-02-21T12:48:48.710Z,35.79
2018-02-21T12:51:14.555Z,35.42
2018-02-21T12:53:40.366Z,35.78
2018-02-21T12:56:06.166Z,35.53
2018-02-21T12:58:31.970Z,36.25
2018-02-21T13:00:57.812Z,35.54
2018-02-21T13:03:23.617Z,35.61
2018-02-21T13:05:49.490Z,36.78
2018-02-21T13:08:15.261Z,34.39
2018-02-21T13:10:41.061Z,35.94
2018-02-21T13:13:06.871Z,34.91
2018-02-21T13:15:32.670Z,35.67
2018-02-21T13:17:58.478Z,35.39
2018-02-21T13:20:24.281Z,34.78
2018-02-21T13:22:50.086Z,34.49
2018-02-21T13:25:15.894Z,34.58
2018-02-21T13:27:41.733Z,34.38
2018-02-21T13:30:07.546Z,33.94
2018-02-21T13:32:33.378Z,34.09
2018-02-21T13:34:59.226Z,33.95
2018-02-21T13:37:25.045Z,34.83
2018-02-21T13:39:50.890Z,34.45
2018-02-21T13:42:16.710Z,35.99
2018-02-21T13:44:42.520Z,35.23
2018-02-21T13:47:08.325Z,35.76
2018-02-21T13:49:34.126Z,35.33
2018-02-21T13:51:59.930Z,35.00
2018-02-21T13:54:25.738Z,35.72
2018-02-21T13:56:51.581Z,34.90
2018-02-21T13:59:17.386Z,35.52
2018-02-21T14:01:43.222Z,35.51
2018-02-21T14:04:09.062Z,35.53
2018-02-21T14:06:34.873Z,36.22
2018-02-21T14:09:00.709Z,35.29
2018-02-21T14:11:26.505Z,36.12
2018-02-21T14:13:52.350Z,36.91
2018-02-21T14:16:18.149Z,36.90
2018-02-21T14:18:44.002Z,36.43
2018-02-21T14:21:09.811Z,36.82
2018-02-21T14:23:35.616Z,36.56
2018-02-21T14:26:01.456Z,37.21
2018-02-21T14:28:27.262Z,37.22
2018-02-21T14:30:53.066Z,37.12
2018-02-21T14:33:18.886Z,37.92
2018-02-21T14:35:44.689Z,37.56
2018-02-21T14:38:10.493Z,37.32
2018-02-21T14:40:36.293Z,36.84
2018-02-21T14:43:02.097Z,36.54
2018-02-21T14:45:27.911Z,38.53
2018-02-21T14:47:53.718Z,37.49
2018-02-21T14:50:19.572Z,38.87
2018-02-21T14:52:45.382Z,38.40
2018-02-21T14:55:11.239Z,37.78
2018-02-21T14:57:37.045Z,37.41
2018-02-21T15:00:02.890Z,36.19
2018-02-21T15:02:28.708Z,36.75
2018-02-21T15:04:54.520Z,36.05
2018-02-21T15:07:20.381Z,36.67
2018-02-21T15:09:46.197Z,36.41
2018-02-21T15:12:12.014Z,36.47
2018-02-21T15:14:37.822Z,36.49
2018-02-21T15:17:04.180Z,36.85
2018-02-21T15:19:29.994Z,36.36
2018-02-21T15:21:55.806Z,36.97
2018-02-21T15:24:21.633Z,37.89
2018-02-21T15:26:47.445Z,36.84
2018-02-21T15:29:13.254Z,36.17
2018-02-21T15:31:39.255Z,36.27
2018-02-21T15:34:05.066Z,36.14
2018-02-21T15:36:30.934Z,36.60
2018-02-21T15:38:56.747Z,36.76
2018-02-21T15:41:22.582Z,36.77
2018-02-21T15:43:48.398Z,34.42
2018-02-21T15:46:14.209Z,33.80
2018-02-21T15:48:40.034Z,34.51
2018-02-21T15:51:05.841Z,34.37
2018-02-21T15:53:31.641Z,34.44
2018-02-21T15:55:57.447Z,35.17
2018-02-21T15:58:23.281Z,36.23
2018-02-21T16:00:49.091Z,35.32
2018-02-21T16:03:15.114Z,36.43
2018-02-21T16:05:40.921Z,36.15
2018-02-21T16:08:07.427Z,35.91
2018-02-21T16:10:33.253Z,35.57
2018-02-21T16:12:59.106Z,35.94
2018-02-21T16:15:24.981Z,36.25
2018-02-21T16:17:50.777Z,35.66
2018-02-21T16:20:16.578Z,35.36
2018-02-21T16:22:42.373Z,36.13
2018-02-21T16:25:08.378Z,35.48
2018-02-21T16:27:34.184Z,35.43
2018-02-21T16:29:59.995Z,36.12
2018-02-21T16:32:25.809Z,36.01
2018-02-21T16:34:51.610Z,36.04
2018-02-21T16:37:17.457Z,36.18
2018-02-21T16:39:43.262Z,36.55
2018-02-21T16:42:09.066Z,36.21
2018-02-21T16:44:34.882Z,36.91
2018-02-21T16:47:00.730Z,35.94
2018-02-21T16:49:26.554Z,36.20
2018-02-21T16:51:52.406Z,35.92
2018-02-21T16:54:21.350Z,35.70
2018-02-21T16:56:47.197Z,36.54
2018-02-21T16:59:13.002Z,36.48
2018-02-21T17:01:38.845Z,36.66
2018-02-21T17:04:04.647Z,36.75
2018-02-21T17:06:30.454Z,36.48
2018-02-21T17:08:56.259Z,37.11
2018-02-21T17:11:22.095Z,37.13
2018-02-21T17:13:47.936Z,36.98
2018-02-21T17:16:13.810Z,36.98
2018-02-21T17:18:39.619Z,37.21
2018-02-21T17:21:05.434Z,36.69
2018-02-21T17:23:31.292Z,37.03
2018-02-21T17:25:57.152Z,37.58
2018-02-21T17:28:22.975Z,36.72
2018-02-21T17:30:48.826Z,36.49
2018-02-21T17:33:14.641Z,36.92
2018-02-21T17:35:40.478Z,36.99
2018-02-21T17:38:06.286Z,37.02
2018-02-21T17:40:32.140Z,37.38
2018-02-21T17:42:57.970Z,37.61
2018-02-21T17:45:23.821Z,37.84
2018-02-21T17:47:49.637Z,38.08
2018-02-21T17:50:15.447Z,37.75
2018-02-21T17:52:41.310Z,38.50
2018-02-21T17:55:07.117Z,37.31
2018-02-21T17:57:33.038Z,36.80
2018-02-21T17:59:58.908Z,37.13
2018-02-21T18:02:24.869Z,37.24
2018-02-21T18:04:50.711Z,38.21
2018-02-21T18:07:16.582Z,37.96
2018-02-21T18:09:42.402Z,37.93
2018-02-21T18:12:08.225Z,37.95
2018-02-21T18:14:34.042Z,37.46
2018-02-21T18:16:59.864Z,37.30
2018-02-21T18:19:25.711Z,37.14
2018-02-21T18:21:51.529Z,38.07
2018-02-21T18:24:17.345Z,37.12
2018-02-21T18:26:43.197Z,38.06
2018-02-21T18:29:09.019Z,37.26
2018-02-21T18:31:34.826Z,37.45
2018-02-21T18:34:00.717Z,37.41
2018-02-21T18:36:26.638Z,37.25
2018-02-21T18:38:52.461Z,37.79
2018-02-21T18:41:18.292Z,37.48
2018-02-21T18:43:44.117Z,37.78
2018-02-21T18:46:09.935Z,37.96
2018-02-21T18:48:35.749Z,37.26
2018-02-21T18:51:01.574Z,37.42
2018-02-21T18:53:27.389Z,37.08
2018-02-21T18:55:53.202Z,36.99
2018-02-21T18:58:19.153Z,37.11
2018-02-21T19:00:45.060Z,36.57
2018-02-21T19:03:10.969Z,36.58
2018-02-21T19:05:36.820Z,36.35
2018-02-21T19:08:02.634Z,36.17
2018-02-21T19:10:28.498Z,36.46
2018-02-21T19:12:54.455Z,36.61
2018-02-21T19:15:20.486Z,36.34
2018-02-21T19:17:46.322Z,36.77
2018-02-21T19:20:12.229Z,36.29
2018-02-21T19:22:38.034Z,36.46
2018-02-21T19:25:03.965Z,36.48
2018-02-21T19:27:29.882Z,36.38
2018-02-21T19:29:55.729Z,36.55
2018-02-21T19:32:21.642Z,36.96
2018-02-21T19:34:47.640Z,36.78
2018-02-21T19:37:13.493Z,37.45
2018-02-21T19:39:39.386Z,36.88
2018-02-21T19:42:05.200Z,36.79
2018-02-21T19:44:31.017Z,36.67
2018-02-21T19:46:56.829Z,37.36
2018-02-21T19:49:22.646Z,36.76
2018-02-21T19:51:48.458Z,36.89
2018-02-21T19:54:14.265Z,36.78
2018-02-21T19:56:40.102Z,37.97
2018-02-21T19:59:05.909Z,36.39
2018-02-21T20:01:31.869Z,36.20
2018-02-21T20:03:57.715Z,36.64
2018-02-21T20:06:23.574Z,36.53
2018-02-21T20:08:49.378Z,36.42
2018-02-21T20:11:15.291Z,36.49
2018-02-21T20:13:41.149Z,36.51
2018-02-21T20:16:07.038Z,36.89
2018-02-21T20:18:32.890Z,37.08
2018-02-21T20:20:58.725Z,36.36
2018-02-21T20:23:24.599Z,36.55
2018-02-21T20:25:50.406Z,36.41
2018-02-21T20:28:16.258Z,37.72
2018-02-21T20:30:42.084Z,36.71
2018-02-21T20:33:07.935Z,36.87
2018-02-21T20:35:33.745Z,36.46
2018-02-21T20:37:59.549Z,36.79
2018-02-21T20:40:25.395Z,36.75
2018-02-21T20:42:51.250Z,36.96
2018-02-21T20:45:17.106Z,37.62
2018-02-21T20:47:42.909Z,37.14
2018-02-21T20:50:08.785Z,36.75
2018-02-21T20:52:34.593Z,36.62
2018-02-21T20:55:00.405Z,36.76
2018-02-21T20:57:26.341Z,36.67
2018-02-21T20:59:52.222Z,36.63
2018-02-21T21:02:18.832Z,36.56
2018-02-21T21:04:51.529Z,37.26
2018-02-21T21:07:22.042Z,36.72
2018-02-21T21:09:52.580Z,37.06
2018-02-21T21:12:18.739Z,37.06
2018-02-21T21:14:44.577Z,37.67
2018-02-21T21:17:10.386Z,37.57
2018-02-21T21:19:36.194Z,37.76
2018-02-21T21:22:02.039Z,37.96
2018-02-21T21:24:27.859Z,37.75
2018-02-21T21:26:53.702Z,37.64
2018-02-21T21:29:19.661Z,37.52
2018-02-21T21:31:45.542Z,37.87
2018-02-21T21:34:11.386Z,36.96
2018-02-21T21:36:37.234Z,36.85
2018-02-21T21:39:03.800Z,37.33
2018-02-21T21:41:29.634Z,36.69
2018-02-21T21:43:55.440Z,36.81
2018-02-21T21:46:21.378Z,37.58
2018-02-21T21:48:47.285Z,36.93
2018-02-21T21:51:13.239Z,37.36
2018-02-21T21:53:39.066Z,36.88
2018-02-21T21:56:05.185Z,36.65
2018-02-21T21:58:31.015Z,37.92
2018-02-21T22:00:57.074Z,37.23
2018-02-21T22:03:22.931Z,37.42
2018-02-21T22:05:48.762Z,36.79
2018-02-21T22:08:14.915Z,36.94
2018-02-21T22:10:40.730Z,37.01
2018-02-21T22:13:06.843Z,37.14
2018-02-21T22:15:32.682Z,36.94
2018-02-21T22:17:58.502Z,37.61
2018-02-21T22:20:24.702Z,37.73
2018-02-21T22:22:50.514Z,37.07
2018-02-21T22:25:16.516Z,37.16
2018-02-21T22:27:42.333Z,37.06
2018-02-21T22:30:08.329Z,37.04
2018-02-21T22:32:34.349Z,37.50
2018-02-21T22:35:00.212Z,37.07
2018-02-21T22:37:26.291Z,37.56
2018-02-21T22:39:52.114Z,37.06
2018-02-21T22:42:17.958Z,37.46
2018-02-21T22:44:43.902Z,37.31
2018-02-21T22:47:09.734Z,37.14
2018-02-21T22:49:35.925Z,37.43
2018-02-21T22:52:01.751Z,38.19
2018-02-21T22:54:27.797Z,37.56
2018-02-21T22:56:53.658Z,37.96
2018-02-21T22:59:19.473Z,37.99
2018-02-21T23:01:45.543Z,37.49
2018-02-21T23:04:11.365Z,37.57
2018-02-21T23:06:37.429Z,37.33
2018-02-21T23:09:03.268Z,37.54
2018-02-21T23:11:29.070Z,38.04
2018-02-21T23:13:55.118Z,37.65
2018-02-21T23:16:20.945Z,37.48
2018-02-21T23:18:47.048Z,37.44
2018-02-21T23:21:12.958Z,37.88
2018-02-21T23:23:38.878Z,37.36
2018-02-21T23:26:04.924Z,37.71
2018-02-21T23:28:30.754Z,37.45
2018-02-21T23:30:56.580Z,37.34
2018-02-21T23:33:22.380Z,37.64
2018-02-21T23:35:48.184Z,37.65
2018-02-21T23:38:13.983Z,37.63
2018-02-21T23:40:39.825Z,37.70
2018-02-21T23:43:05.634Z,37.73
2018-02-21T23:45:31.505Z,38.52
2018-02-21T23:47:57.309Z,37.74
2018-02-21T23:50:23.150Z,37.35
2018-02-21T23:52:48.958Z,37.55
2018-02-21T23:55:14.769Z,37.92
2018-02-21T23:57:40.581Z,37.75
